sensor_id;sensor_type;location;lat;lon;timestamp;temperature;humidity
17033;DHT22;63208;52.178;21.016;2023-03-23T01:12:24;10.20;99.90
17033;DHT22;63208;52.178;21.016;2023-03-23T01:14:51;10.10;99.90
17033;DHT22;63208;52.178;21.016;2023-03-23T01:17:18;10.10;99.90
17033;DHT22;63208;52.178;21.016;2023-03-23T01:19:46;10.10;99.90
17033;DHT22;63208;52.178;21.016;2023-03-23T01:22:12;10.00;99.90
17033;DHT22;63208;52.178;21.016;2023-03-23T01:24:40;10.00;99.90
17033;DHT22;63208;52.178;21.016;2023-03-23T01:27:06;10.00;99.90
17033;DHT22;63208;52.178;21.016;2023-03-23T01:34:28;10.10;99.90
17033;DHT22;63208;52.178;21.016;2023-03-23T01:39:22;10.10;99.90
17033;DHT22;63208;52.178;21.016;2023-03-23T01:41:49;10.10;99.90
17033;DHT22;63208;52.178;21.016;2023-03-23T01:51:57;10.00;99.90
17033;DHT22;63208;52.178;21.016;2023-03-23T01:56:54;9.90;99.90
17033;DHT22;63208;52.178;21.016;2023-03-23T01:59:21;9.90;99.90
17033;DHT22;63208;52.178;21.016;2023-03-23T02:04:18;9.90;99.90
17033;DHT22;63208;52.178;21.016;2023-03-23T02:06:46;9.80;99.90
17033;DHT22;63208;52.178;21.016;2023-03-23T02:09:15;9.80;99.90
17033;DHT22;63208;52.178;21.016;2023-03-23T02:14:10;9.80;99.90
17033;DHT22;63208;52.178;21.016;2023-03-23T02:19:07;9.80;99.90
17033;DHT22;63208;52.178;21.016;2023-03-23T02:21:48;9.80;99.90
17033;DHT22;63208;52.178;21.016;2023-03-23T02:24:28;9.80;99.90
17033;DHT22;63208;52.178;21.016;2023-03-23T02:29:27;9.80;99.90
17033;DHT22;63208;52.178;21.016;2023-03-23T02:31:59;9.80;99.90
17033;DHT22;63208;52.178;21.016;2023-03-23T02:37:00;9.80;99.90
17033;DHT22;63208;52.178;21.016;2023-03-23T02:39:29;9.80;99.90
17033;DHT22;63208;52.178;21.016;2023-03-23T02:41:57;9.80;99.90
17033;DHT22;63208;52.178;21.016;2023-03-23T02:46:53;9.80;99.90
17033;DHT22;63208;52.178;21.016;2023-03-23T02:49:20;9.80;99.90
17033;DHT22;63208;52.178;21.016;2023-03-23T02:51:49;9.80;99.90
17033;DHT22;63208;52.178;21.016;2023-03-23T02:54:18;9.80;99.90
17033;DHT22;63208;52.178;21.016;2023-03-23T02:59:12;9.80;99.90
17033;DHT22;63208;52.178;21.016;2023-03-23T03:01:46;9.80;99.90
17033;DHT22;63208;52.178;21.016;2023-03-23T03:04:15;9.90;99.90
17033;DHT22;63208;52.178;21.016;2023-03-23T03:06:44;9.90;99.90
17033;DHT22;63208;52.178;21.016;2023-03-23T03:09:14;9.80;99.90
17033;DHT22;63208;52.178;21.016;2023-03-23T03:11:48;9.80;99.90
17033;DHT22;63208;52.178;21.016;2023-03-23T03:14:18;9.80;99.90
17033;DHT22;63208;52.178;21.016;2023-03-23T03:16:46;9.90;99.90
17033;DHT22;63208;52.178;21.016;2023-03-23T03:19:17;9.90;99.90
17033;DHT22;63208;52.178;21.016;2023-03-23T03:21:47;9.90;99.90
17033;DHT22;63208;52.178;21.016;2023-03-23T03:24:17;9.90;99.90
17033;DHT22;63208;52.178;21.016;2023-03-23T03:26:46;9.90;99.90
17033;DHT22;63208;52.178;21.016;2023-03-23T03:34:12;9.80;99.90
17033;DHT22;63208;52.178;21.016;2023-03-23T03:39:11;9.80;99.90
17033;DHT22;63208;52.178;21.016;2023-03-23T03:41:40;9.80;99.90
17033;DHT22;63208;52.178;21.016;2023-03-23T03:44:07;9.80;99.90
17033;DHT22;63208;52.178;21.016;2023-03-23T03:46:34;9.70;99.90
17033;DHT22;63208;52.178;21.016;2023-03-23T03:49:02;9.70;99.90
17033;DHT22;63208;52.178;21.016;2023-03-23T03:51:31;9.80;99.90
17033;DHT22;63208;52.178;21.016;2023-03-23T03:56:25;9.80;99.90
17033;DHT22;63208;52.178;21.016;2023-03-23T03:58:52;9.80;99.90
17033;DHT22;63208;52.178;21.016;2023-03-23T04:01:19;9.70;99.90
17033;DHT22;63208;52.178;21.016;2023-03-23T04:03:46;9.70;99.90
17033;DHT22;63208;52.178;21.016;2023-03-23T04:06:14;9.60;99.90
17033;DHT22;63208;52.178;21.016;2023-03-23T04:08:42;9.60;99.90
17033;DHT22;63208;52.178;21.016;2023-03-23T04:13:37;9.60;99.90
17033;DHT22;63208;52.178;21.016;2023-03-23T04:20:59;9.70;99.90
17033;DHT22;63208;52.178;21.016;2023-03-23T04:23:27;9.70;99.90
17033;DHT22;63208;52.178;21.016;2023-03-23T04:25:57;9.70;99.90
17033;DHT22;63208;52.178;21.016;2023-03-23T04:30:51;9.60;99.90
17033;DHT22;63208;52.178;21.016;2023-03-23T04:40:40;9.60;99.90
17033;DHT22;63208;52.178;21.016;2023-03-23T04:45:35;9.50;99.90
17033;DHT22;63208;52.178;21.016;2023-03-23T04:50:33;9.50;99.90
17033;DHT22;63208;52.178;21.016;2023-03-23T04:57:56;9.40;99.90
17033;DHT22;63208;52.178;21.016;2023-03-23T05:02:53;9.50;99.90
17033;DHT22;63208;52.178;21.016;2023-03-23T05:05:23;9.40;99.90
17033;DHT22;63208;52.178;21.016;2023-03-23T05:07:55;9.40;99.90
17033;DHT22;63208;52.178;21.016;2023-03-23T05:10:22;9.40;99.90
17033;DHT22;63208;52.178;21.016;2023-03-23T05:15:16;9.40;99.90
17033;DHT22;63208;52.178;21.016;2023-03-23T05:20:12;9.40;99.90
17033;DHT22;63208;52.178;21.016;2023-03-23T05:22:40;9.50;99.90
17033;DHT22;63208;52.178;21.016;2023-03-23T05:27:35;9.50;99.90
17033;DHT22;63208;52.178;21.016;2023-03-23T05:32:29;9.50;99.90
17033;DHT22;63208;52.178;21.016;2023-03-23T05:34:56;9.50;99.90
17033;DHT22;63208;52.178;21.016;2023-03-23T05:37:24;9.50;99.90
17033;DHT22;63208;52.178;21.016;2023-03-23T05:39:52;9.50;99.90
17033;DHT22;63208;52.178;21.016;2023-03-23T05:47:12;9.70;99.90
17033;DHT22;63208;52.178;21.016;2023-03-23T05:49:39;9.70;99.90
17033;DHT22;63208;52.178;21.016;2023-03-23T05:52:06;9.80;99.90
17033;DHT22;63208;52.178;21.016;2023-03-23T05:54:34;9.80;99.90
17033;DHT22;63208;52.178;21.016;2023-03-23T05:59:28;9.90;99.90
17033;DHT22;63208;52.178;21.016;2023-03-23T06:01:55;9.90;99.90
17033;DHT22;63208;52.178;21.016;2023-03-23T06:06:50;10.00;99.90
17033;DHT22;63208;52.178;21.016;2023-03-23T06:14:14;10.20;99.90
17033;DHT22;63208;52.178;21.016;2023-03-23T06:16:41;10.20;99.90
17033;DHT22;63208;52.178;21.016;2023-03-23T06:24:12;10.40;99.90
17033;DHT22;63208;52.178;21.016;2023-03-23T06:26:39;10.40;99.90
17033;DHT22;63208;52.178;21.016;2023-03-23T06:34:05;10.60;99.90
17033;DHT22;63208;52.178;21.016;2023-03-23T06:38:59;10.80;99.90
17033;DHT22;63208;52.178;21.016;2023-03-23T06:41:26;10.80;99.90
17033;DHT22;63208;52.178;21.016;2023-03-23T06:43:53;10.90;99.90
17033;DHT22;63208;52.178;21.016;2023-03-23T06:48:47;11.10;99.90
17033;DHT22;63208;52.178;21.016;2023-03-23T06:51:16;11.10;99.90
17033;DHT22;63208;52.178;21.016;2023-03-23T06:56:39;11.30;99.90
17033;DHT22;63208;52.178;21.016;2023-03-23T06:59:06;11.30;99.90
17033;DHT22;63208;52.178;21.016;2023-03-23T07:01:32;11.40;99.90
17033;DHT22;63208;52.178;21.016;2023-03-23T07:03:59;11.40;99.90
17033;DHT22;63208;52.178;21.016;2023-03-23T07:06:27;11.50;99.90
17033;DHT22;63208;52.178;21.016;2023-03-23T07:08:54;11.60;99.90
17033;DHT22;63208;52.178;21.016;2023-03-23T07:11:21;11.60;99.90
17033;DHT22;63208;52.178;21.016;2023-03-23T07:18:42;12.00;99.90
17033;DHT22;63208;52.178;21.016;2023-03-23T07:21:21;12.10;99.90
17033;DHT22;63208;52.178;21.016;2023-03-23T07:28:54;12.50;99.90
17033;DHT22;63208;52.178;21.016;2023-03-23T07:31:21;12.40;99.90
17033;DHT22;63208;52.178;21.016;2023-03-23T07:36:45;12.60;99.90
17033;DHT22;63208;52.178;21.016;2023-03-23T07:39:09;12.80;99.90
17033;DHT22;63208;52.178;21.016;2023-03-23T07:41:35;12.90;99.90
17033;DHT22;63208;52.178;21.016;2023-03-23T07:44:04;12.90;99.90
17033;DHT22;63208;52.178;21.016;2023-03-23T07:46:31;13.00;99.90
17033;DHT22;63208;52.178;21.016;2023-03-23T07:51:25;13.20;99.90
17033;DHT22;63208;52.178;21.016;2023-03-23T07:54:31;13.20;99.90
17033;DHT22;63208;52.178;21.016;2023-03-23T07:57:05;13.40;99.90
17033;DHT22;63208;52.178;21.016;2023-03-23T07:59:34;13.40;99.90
17033;DHT22;63208;52.178;21.016;2023-03-23T08:09:53;14.00;99.90
17033;DHT22;63208;52.178;21.016;2023-03-23T08:12:19;14.00;99.90
17033;DHT22;63208;52.178;21.016;2023-03-23T08:22:42;14.30;99.90
17033;DHT22;63208;52.178;21.016;2023-03-23T08:32:35;14.80;99.90
17033;DHT22;63208;52.178;21.016;2023-03-23T08:37:29;14.80;99.90
17033;DHT22;63208;52.178;21.016;2023-03-23T08:42:43;14.90;99.90
17033;DHT22;63208;52.178;21.016;2023-03-23T08:45:12;14.90;99.90
17033;DHT22;63208;52.178;21.016;2023-03-23T08:50:08;15.00;99.90
17033;DHT22;63208;52.178;21.016;2023-03-23T09:12:08;15.20;99.90
17033;DHT22;63208;52.178;21.016;2023-03-23T09:14:36;15.10;99.90
17033;DHT22;63208;52.178;21.016;2023-03-23T09:17:03;15.20;99.90
17033;DHT22;63208;52.178;21.016;2023-03-23T09:19:30;15.10;99.90
17033;DHT22;63208;52.178;21.016;2023-03-23T09:26:52;15.20;99.90
17033;DHT22;63208;52.178;21.016;2023-03-23T09:31:47;15.30;99.90
17033;DHT22;63208;52.178;21.016;2023-03-23T09:34:14;15.30;99.90
17033;DHT22;63208;52.178;21.016;2023-03-23T09:36:42;15.30;99.90
17033;DHT22;63208;52.178;21.016;2023-03-23T09:39:09;15.50;99.90
17033;DHT22;63208;52.178;21.016;2023-03-23T09:44:31;15.60;99.90
17033;DHT22;63208;52.178;21.016;2023-03-23T09:47:04;15.70;99.90
17033;DHT22;63208;52.178;21.016;2023-03-23T09:49:50;15.80;99.90
17033;DHT22;63208;52.178;21.016;2023-03-23T09:52:18;15.90;99.90
17033;DHT22;63208;52.178;21.016;2023-03-23T09:54:46;16.00;99.90
17033;DHT22;63208;52.178;21.016;2023-03-23T09:59:55;16.10;99.90
17033;DHT22;63208;52.178;21.016;2023-03-23T10:02:26;16.30;99.90
17033;DHT22;63208;52.178;21.016;2023-03-23T10:04:54;16.40;99.90
17033;DHT22;63208;52.178;21.016;2023-03-23T10:09:52;16.50;99.90
17033;DHT22;63208;52.178;21.016;2023-03-23T10:12:21;16.50;99.90
17033;DHT22;63208;52.178;21.016;2023-03-23T10:15:03;16.60;99.90
17033;DHT22;63208;52.178;21.016;2023-03-23T10:17:33;16.60;99.90
17033;DHT22;63208;52.178;21.016;2023-03-23T10:22:32;16.80;99.90
17033;DHT22;63208;52.178;21.016;2023-03-23T10:25:02;16.90;99.90
17033;DHT22;63208;52.178;21.016;2023-03-23T10:27:31;16.90;99.90
17033;DHT22;63208;52.178;21.016;2023-03-23T10:34:56;16.90;99.90
17033;DHT22;63208;52.178;21.016;2023-03-23T10:37:25;17.00;99.90
17033;DHT22;63208;52.178;21.016;2023-03-23T10:44:47;17.50;99.90
17033;DHT22;63208;52.178;21.016;2023-03-23T10:47:14;17.70;99.90
17033;DHT22;63208;52.178;21.016;2023-03-23T10:49:43;17.90;99.90
17033;DHT22;63208;52.178;21.016;2023-03-23T10:52:23;18.10;99.90
17033;DHT22;63208;52.178;21.016;2023-03-23T10:54:54;18.10;99.90
17033;DHT22;63208;52.178;21.016;2023-03-23T10:59:48;18.30;99.90
17033;DHT22;63208;52.178;21.016;2023-03-23T11:02:16;18.50;99.90
17033;DHT22;63208;52.178;21.016;2023-03-23T11:04:53;18.30;99.90
17033;DHT22;63208;52.178;21.016;2023-03-23T11:09:53;18.10;99.90
17033;DHT22;63208;52.178;21.016;2023-03-23T11:12:21;18.10;99.90
17033;DHT22;63208;52.178;21.016;2023-03-23T11:14:48;18.10;99.90
17033;DHT22;63208;52.178;21.016;2023-03-23T11:17:20;18.10;99.90
17033;DHT22;63208;52.178;21.016;2023-03-23T11:19:47;18.40;99.90
17033;DHT22;63208;52.178;21.016;2023-03-23T11:22:16;18.40;99.90
17033;DHT22;63208;52.178;21.016;2023-03-23T11:24:44;18.20;99.90
17033;DHT22;63208;52.178;21.016;2023-03-23T11:27:13;18.40;99.90
17033;DHT22;63208;52.178;21.016;2023-03-23T11:29:44;18.70;99.90
17033;DHT22;63208;52.178;21.016;2023-03-23T11:32:12;18.90;99.90
17033;DHT22;63208;52.178;21.016;2023-03-23T11:34:54;18.90;99.90
17033;DHT22;63208;52.178;21.016;2023-03-23T11:37:23;18.90;99.90
17033;DHT22;63208;52.178;21.016;2023-03-23T11:39:53;19.00;99.90
17033;DHT22;63208;52.178;21.016;2023-03-23T11:55:55;19.20;99.90
17033;DHT22;63208;52.178;21.016;2023-03-23T11:58:25;19.30;99.90
17033;DHT22;63208;52.178;21.016;2023-03-23T12:00:58;19.20;99.90
17033;DHT22;63208;52.178;21.016;2023-03-23T12:03:26;19.30;99.90
17033;DHT22;63208;52.178;21.016;2023-03-23T12:06:00;19.50;99.90
17033;DHT22;63208;52.178;21.016;2023-03-23T12:08:33;19.70;99.90
17033;DHT22;63208;52.178;21.016;2023-03-23T12:11:07;19.60;99.90
17033;DHT22;63208;52.178;21.016;2023-03-23T12:13:46;20.00;99.00
17033;DHT22;63208;52.178;21.016;2023-03-23T12:16:23;20.10;97.90
17033;DHT22;63208;52.178;21.016;2023-03-23T12:18:55;19.90;98.00
17033;DHT22;63208;52.178;21.016;2023-03-23T12:21:27;19.90;97.80
17033;DHT22;63208;52.178;21.016;2023-03-23T12:23:58;19.80;96.50
17033;DHT22;63208;52.178;21.016;2023-03-23T12:26:30;19.80;98.20
17033;DHT22;63208;52.178;21.016;2023-03-23T12:29:13;19.80;97.60
17033;DHT22;63208;52.178;21.016;2023-03-23T12:31:52;19.70;97.60
17033;DHT22;63208;52.178;21.016;2023-03-23T12:34:24;20.00;97.90
17033;DHT22;63208;52.178;21.016;2023-03-23T12:36:58;20.00;97.00
17033;DHT22;63208;52.178;21.016;2023-03-23T12:42:19;19.80;97.10
17033;DHT22;63208;52.178;21.016;2023-03-23T12:44:49;19.60;96.70
17033;DHT22;63208;52.178;21.016;2023-03-23T12:53:03;19.20;98.40
17033;DHT22;63208;52.178;21.016;2023-03-23T12:55:34;19.20;98.00
17033;DHT22;63208;52.178;21.016;2023-03-23T12:58:02;19.20;98.00
17033;DHT22;63208;52.178;21.016;2023-03-23T13:00:33;19.10;98.40
17033;DHT22;63208;52.178;21.016;2023-03-23T13:03:05;19.10;98.40
17033;DHT22;63208;52.178;21.016;2023-03-23T13:08:00;19.00;96.90
17033;DHT22;63208;52.178;21.016;2023-03-23T13:16:21;18.90;97.60
17033;DHT22;63208;52.178;21.016;2023-03-23T13:18:53;18.90;97.20
17033;DHT22;63208;52.178;21.016;2023-03-23T13:21:23;18.80;98.30
17033;DHT22;63208;52.178;21.016;2023-03-23T13:23:53;18.90;97.80
17033;DHT22;63208;52.178;21.016;2023-03-23T13:26:21;18.80;97.40
17033;DHT22;63208;52.178;21.016;2023-03-23T13:28:50;18.80;98.40
17033;DHT22;63208;52.178;21.016;2023-03-23T13:31:21;18.70;98.00
17033;DHT22;63208;52.178;21.016;2023-03-23T13:33:51;18.60;98.70
17033;DHT22;63208;52.178;21.016;2023-03-23T13:36:31;18.60;99.50
17033;DHT22;63208;52.178;21.016;2023-03-23T13:39:00;18.60;98.50
17033;DHT22;63208;52.178;21.016;2023-03-23T13:41:28;18.60;98.10
17033;DHT22;63208;52.178;21.016;2023-03-23T13:44:05;18.70;97.90
17033;DHT22;63208;52.178;21.016;2023-03-23T13:58:49;18.80;96.50
17033;DHT22;63208;52.178;21.016;2023-03-23T14:01:17;18.80;97.10
17033;DHT22;63208;52.178;21.016;2023-03-23T14:03:46;18.80;96.80
17033;DHT22;63208;52.178;21.016;2023-03-23T14:06:16;18.70;97.00
17033;DHT22;63208;52.178;21.016;2023-03-23T14:08:44;18.70;97.40
17033;DHT22;63208;52.178;21.016;2023-03-23T14:11:19;18.70;97.30
17033;DHT22;63208;52.178;21.016;2023-03-23T14:14:03;18.50;97.50
17033;DHT22;63208;52.178;21.016;2023-03-23T14:16:31;18.30;98.60
17033;DHT22;63208;52.178;21.016;2023-03-23T14:18:59;18.20;98.90
17033;DHT22;63208;52.178;21.016;2023-03-23T14:21:33;18.20;99.10
17033;DHT22;63208;52.178;21.016;2023-03-23T14:24:01;18.10;99.40
17033;DHT22;63208;52.178;21.016;2023-03-23T14:28:55;17.90;99.90
17033;DHT22;63208;52.178;21.016;2023-03-23T14:31:24;17.80;99.90
17033;DHT22;63208;52.178;21.016;2023-03-23T14:33:51;17.80;99.90
17033;DHT22;63208;52.178;21.016;2023-03-23T14:36:22;17.70;99.90
17033;DHT22;63208;52.178;21.016;2023-03-23T14:38:54;17.60;99.90
17033;DHT22;63208;52.178;21.016;2023-03-23T14:46:17;17.50;99.90
17033;DHT22;63208;52.178;21.016;2023-03-23T14:48:45;17.50;99.90
17033;DHT22;63208;52.178;21.016;2023-03-23T14:51:16;17.40;99.90
17033;DHT22;63208;52.178;21.016;2023-03-23T14:53:53;17.30;99.90
17033;DHT22;63208;52.178;21.016;2023-03-23T14:56:36;17.20;99.90
17033;DHT22;63208;52.178;21.016;2023-03-23T14:59:03;17.10;99.90
17033;DHT22;63208;52.178;21.016;2023-03-23T15:01:31;17.10;99.90
17033;DHT22;63208;52.178;21.016;2023-03-23T15:04:01;17.10;99.90
17033;DHT22;63208;52.178;21.016;2023-03-23T15:06:29;17.00;99.90
17033;DHT22;63208;52.178;21.016;2023-03-23T15:08:57;17.00;99.90
17033;DHT22;63208;52.178;21.016;2023-03-23T15:11:50;16.90;99.90
17033;DHT22;63208;52.178;21.016;2023-03-23T15:14:16;16.90;99.90
17033;DHT22;63208;52.178;21.016;2023-03-23T15:16:58;16.90;99.90
17033;DHT22;63208;52.178;21.016;2023-03-23T15:19:33;16.80;99.90
17033;DHT22;63208;52.178;21.016;2023-03-23T15:22:04;16.80;99.90
17033;DHT22;63208;52.178;21.016;2023-03-23T15:24:32;16.80;99.90
17033;DHT22;63208;52.178;21.016;2023-03-23T15:27:03;16.80;99.90
17033;DHT22;63208;52.178;21.016;2023-03-23T15:29:30;16.70;99.90
17033;DHT22;63208;52.178;21.016;2023-03-23T15:31:57;16.70;99.90
17033;DHT22;63208;52.178;21.016;2023-03-23T15:34:29;16.70;99.90
17033;DHT22;63208;52.178;21.016;2023-03-23T15:39:40;16.60;99.90
17033;DHT22;63208;52.178;21.016;2023-03-23T15:42:24;16.60;99.90
17033;DHT22;63208;52.178;21.016;2023-03-23T15:44:55;16.60;99.90
17033;DHT22;63208;52.178;21.016;2023-03-23T15:47:32;16.50;99.90
17033;DHT22;63208;52.178;21.016;2023-03-23T15:50:02;16.50;99.90
17033;DHT22;63208;52.178;21.016;2023-03-23T15:52:29;16.50;99.90
17033;DHT22;63208;52.178;21.016;2023-03-23T15:54:58;16.50;99.90
17033;DHT22;63208;52.178;21.016;2023-03-23T15:57:25;16.40;99.90
17033;DHT22;63208;52.178;21.016;2023-03-23T15:59:51;16.40;99.90
17033;DHT22;63208;52.178;21.016;2023-03-23T16:02:19;16.40;99.90
17033;DHT22;63208;52.178;21.016;2023-03-23T16:04:46;16.40;99.90
17033;DHT22;63208;52.178;21.016;2023-03-23T16:07:13;16.40;99.90
17033;DHT22;63208;52.178;21.016;2023-03-23T16:09:40;16.30;99.90
17033;DHT22;63208;52.178;21.016;2023-03-23T16:12:10;16.30;99.90
17033;DHT22;63208;52.178;21.016;2023-03-23T16:22:52;16.20;99.90
17033;DHT22;63208;52.178;21.016;2023-03-23T16:25:19;16.20;99.90
17033;DHT22;63208;52.178;21.016;2023-03-23T16:27:56;16.10;99.90
17033;DHT22;63208;52.178;21.016;2023-03-23T16:30:23;16.00;99.90
17033;DHT22;63208;52.178;21.016;2023-03-23T16:32:50;16.00;99.90
17033;DHT22;63208;52.178;21.016;2023-03-23T16:35:18;15.90;99.90
17033;DHT22;63208;52.178;21.016;2023-03-23T16:37:45;15.80;99.90
17033;DHT22;63208;52.178;21.016;2023-03-23T16:40:12;15.80;99.90
17033;DHT22;63208;52.178;21.016;2023-03-23T16:42:38;15.70;99.90
17033;DHT22;63208;52.178;21.016;2023-03-23T16:45:25;15.50;99.90
17033;DHT22;63208;52.178;21.016;2023-03-23T16:47:52;15.60;99.90
17033;DHT22;63208;52.178;21.016;2023-03-23T16:50:33;15.40;99.90
17033;DHT22;63208;52.178;21.016;2023-03-23T16:53:14;15.40;99.90
17033;DHT22;63208;52.178;21.016;2023-03-23T16:55:57;15.30;99.90
17033;DHT22;63208;52.178;21.016;2023-03-23T16:58:24;15.30;99.90
17033;DHT22;63208;52.178;21.016;2023-03-23T17:00:53;15.30;99.90
17033;DHT22;63208;52.178;21.016;2023-03-23T17:03:20;15.30;99.90
17033;DHT22;63208;52.178;21.016;2023-03-23T17:05:47;15.20;99.90
17033;DHT22;63208;52.178;21.016;2023-03-23T17:14:22;15.20;99.90
17033;DHT22;63208;52.178;21.016;2023-03-23T17:16:50;15.10;99.90
17033;DHT22;63208;52.178;21.016;2023-03-23T17:22:19;15.10;99.90
17033;DHT22;63208;52.178;21.016;2023-03-23T17:24:46;15.00;99.90
17033;DHT22;63208;52.178;21.016;2023-03-23T17:27:13;15.00;99.90
17033;DHT22;63208;52.178;21.016;2023-03-23T17:29:40;15.00;99.90
17033;DHT22;63208;52.178;21.016;2023-03-23T17:32:09;15.00;99.90
17033;DHT22;63208;52.178;21.016;2023-03-23T17:34:36;14.90;99.90
17033;DHT22;63208;52.178;21.016;2023-03-23T17:37:03;15.00;99.90
17033;DHT22;63208;52.178;21.016;2023-03-23T17:39:36;14.90;99.90
17033;DHT22;63208;52.178;21.016;2023-03-23T17:42:17;14.90;99.90
17033;DHT22;63208;52.178;21.016;2023-03-23T17:47:48;14.90;99.90
17033;DHT22;63208;52.178;21.016;2023-03-23T17:50:15;14.90;99.90
17033;DHT22;63208;52.178;21.016;2023-03-23T17:52:42;14.80;99.90
17033;DHT22;63208;52.178;21.016;2023-03-23T17:55:09;14.80;99.90
17033;DHT22;63208;52.178;21.016;2023-03-23T17:57:36;14.80;99.90
17033;DHT22;63208;52.178;21.016;2023-03-23T18:00:03;14.80;99.90
17033;DHT22;63208;52.178;21.016;2023-03-23T18:02:32;14.80;99.90
17033;DHT22;63208;52.178;21.016;2023-03-23T18:11:06;14.80;99.90
17033;DHT22;63208;52.178;21.016;2023-03-23T18:13:34;14.80;99.90
17033;DHT22;63208;52.178;21.016;2023-03-23T18:16:01;14.80;99.90
17033;DHT22;63208;52.178;21.016;2023-03-23T18:18:29;14.70;99.90
17033;DHT22;63208;52.178;21.016;2023-03-23T18:20:56;14.60;99.90
17033;DHT22;63208;52.178;21.016;2023-03-23T18:23:23;14.60;99.90
17033;DHT22;63208;52.178;21.016;2023-03-23T18:25:50;14.60;99.90
17033;DHT22;63208;52.178;21.016;2023-03-23T18:28:19;14.60;99.90
17033;DHT22;63208;52.178;21.016;2023-03-23T18:30:46;14.60;99.90
17033;DHT22;63208;52.178;21.016;2023-03-23T18:33:13;14.70;99.90
17033;DHT22;63208;52.178;21.016;2023-03-23T18:35:54;14.60;99.90
17033;DHT22;63208;52.178;21.016;2023-03-23T18:38:21;14.60;99.90
17033;DHT22;63208;52.178;21.016;2023-03-23T18:40:48;14.60;99.90
17033;DHT22;63208;52.178;21.016;2023-03-23T18:43:15;14.60;99.90
17033;DHT22;63208;52.178;21.016;2023-03-23T18:45:45;14.70;99.90
17033;DHT22;63208;52.178;21.016;2023-03-23T18:48:13;14.70;99.90
17033;DHT22;63208;52.178;21.016;2023-03-23T18:50:40;14.70;99.90
17033;DHT22;63208;52.178;21.016;2023-03-23T18:53:16;14.70;99.90
17033;DHT22;63208;52.178;21.016;2023-03-23T18:55:46;14.80;99.90
17033;DHT22;63208;52.178;21.016;2023-03-23T18:58:13;14.80;99.90
17033;DHT22;63208;52.178;21.016;2023-03-23T19:00:40;14.80;99.90
17033;DHT22;63208;52.178;21.016;2023-03-23T19:03:09;14.80;99.90
17033;DHT22;63208;52.178;21.016;2023-03-23T19:05:36;14.90;99.90
17033;DHT22;63208;52.178;21.016;2023-03-23T19:08:16;14.90;99.90
17033;DHT22;63208;52.178;21.016;2023-03-23T19:10:42;14.90;99.90
17033;DHT22;63208;52.178;21.016;2023-03-23T19:13:09;14.90;99.90
17033;DHT22;63208;52.178;21.016;2023-03-23T19:15:36;14.90;99.90
17033;DHT22;63208;52.178;21.016;2023-03-23T19:18:04;14.90;99.90
17033;DHT22;63208;52.178;21.016;2023-03-23T19:28:50;14.90;99.90
17033;DHT22;63208;52.178;21.016;2023-03-23T19:31:19;14.90;99.90
17033;DHT22;63208;52.178;21.016;2023-03-23T19:33:56;14.90;99.90
17033;DHT22;63208;52.178;21.016;2023-03-23T19:39:25;14.90;99.90
17033;DHT22;63208;52.178;21.016;2023-03-23T19:41:52;14.90;99.90
17033;DHT22;63208;52.178;21.016;2023-03-23T19:44:21;14.90;99.90
17033;DHT22;63208;52.178;21.016;2023-03-23T19:46:48;14.90;99.90
17033;DHT22;63208;52.178;21.016;2023-03-23T19:49:15;14.80;99.90
17033;DHT22;63208;52.178;21.016;2023-03-23T19:51:42;14.80;99.90
17033;DHT22;63208;52.178;21.016;2023-03-23T19:54:09;14.80;99.90
17033;DHT22;63208;52.178;21.016;2023-03-23T19:56:37;14.70;99.90
17033;DHT22;63208;52.178;21.016;2023-03-23T20:23:34;14.40;99.90
17033;DHT22;63208;52.178;21.016;2023-03-23T20:26:02;14.30;99.90
17033;DHT22;63208;52.178;21.016;2023-03-23T20:29:02;14.30;99.90
17033;DHT22;63208;52.178;21.016;2023-03-23T20:31:29;14.20;99.90
17033;DHT22;63208;52.178;21.016;2023-03-23T20:33:57;14.20;99.90
17033;DHT22;63208;52.178;21.016;2023-03-23T20:36:25;14.20;99.90
17033;DHT22;63208;52.178;21.016;2023-03-23T20:38:55;14.20;99.90
17033;DHT22;63208;52.178;21.016;2023-03-23T20:41:22;14.10;99.90
17033;DHT22;63208;52.178;21.016;2023-03-23T20:43:49;14.00;99.90
17033;DHT22;63208;52.178;21.016;2023-03-23T20:46:16;14.00;99.90
17033;DHT22;63208;52.178;21.016;2023-03-23T20:48:45;13.90;99.90
17033;DHT22;63208;52.178;21.016;2023-03-23T20:51:13;13.90;99.90
17033;DHT22;63208;52.178;21.016;2023-03-23T20:53:41;13.90;99.90
17033;DHT22;63208;52.178;21.016;2023-03-23T20:56:09;13.90;99.90
17033;DHT22;63208;52.178;21.016;2023-03-23T20:58:36;13.90;99.90
17033;DHT22;63208;52.178;21.016;2023-03-23T21:01:04;13.80;99.90
17033;DHT22;63208;52.178;21.016;2023-03-23T21:03:31;13.80;99.90
17033;DHT22;63208;52.178;21.016;2023-03-23T21:09:09;13.80;99.90
17033;DHT22;63208;52.178;21.016;2023-03-23T21:11:37;13.70;99.90
17033;DHT22;63208;52.178;21.016;2023-03-23T21:14:05;13.70;99.90
17033;DHT22;63208;52.178;21.016;2023-03-23T21:16:31;13.70;99.90
17033;DHT22;63208;52.178;21.016;2023-03-23T21:18:58;13.70;99.90
17033;DHT22;63208;52.178;21.016;2023-03-23T21:21:26;13.70;99.90
17033;DHT22;63208;52.178;21.016;2023-03-23T21:23:53;13.70;99.90
17033;DHT22;63208;52.178;21.016;2023-03-23T21:26:22;13.70;99.90
17033;DHT22;63208;52.178;21.016;2023-03-23T21:28:50;13.70;99.90
17033;DHT22;63208;52.178;21.016;2023-03-23T21:31:18;13.70;99.90
17033;DHT22;63208;52.178;21.016;2023-03-23T21:33:47;13.60;99.90
17033;DHT22;63208;52.178;21.016;2023-03-23T21:36:14;13.60;99.90
17033;DHT22;63208;52.178;21.016;2023-03-23T21:38:41;13.70;99.90
17033;DHT22;63208;52.178;21.016;2023-03-23T21:41:09;13.60;99.90
17033;DHT22;63208;52.178;21.016;2023-03-23T21:43:36;14.00;99.90
17033;DHT22;63208;52.178;21.016;2023-03-23T22:28:53;13.20;99.90
17033;DHT22;63208;52.178;21.016;2023-03-23T22:31:21;13.20;99.90
17033;DHT22;63208;52.178;21.016;2023-03-23T22:33:48;13.10;99.90
17033;DHT22;63208;52.178;21.016;2023-03-23T22:36:18;13.10;99.90
17033;DHT22;63208;52.178;21.016;2023-03-23T22:38:45;13.10;99.90
17033;DHT22;63208;52.178;21.016;2023-03-23T22:41:14;13.10;99.90
